sensor_id;sensor_type;location;lat;lon;timestamp;P1;durP1;ratioP1;P2;durP2;ratioP2
23187;SDS011;11762;59.878;17.686;2024-03-02T00:00:38;39.17;;;17.80;;
23187;SDS011;11762;59.878;17.686;2024-03-02T00:03:05;40.30;;;18.10;;
23187;SDS011;11762;59.878;17.686;2024-03-02T00:05:34;39.37;;;18.00;;
23187;SDS011;11762;59.878;17.686;2024-03-02T00:08:04;39.63;;;17.60;;
23187;SDS011;11762;59.878;17.686;2024-03-02T00:10:33;46.43;;;18.50;;
23187;SDS011;11762;59.878;17.686;2024-03-02T00:13:04;43.73;;;17.50;;
23187;SDS011;11762;59.878;17.686;2024-03-02T00:15:39;37.30;;;17.37;;
23187;SDS011;11762;59.878;17.686;2024-03-02T00:18:08;38.27;;;17.73;;
23187;SDS011;11762;59.878;17.686;2024-03-02T00:20:37;39.63;;;19.10;;
23187;SDS011;11762;59.878;17.686;2024-03-02T00:23:07;39.50;;;17.43;;
23187;SDS011;11762;59.878;17.686;2024-03-02T00:25:39;42.30;;;18.30;;
23187;SDS011;11762;59.878;17.686;2024-03-02T00:28:11;42.43;;;17.93;;
23187;SDS011;11762;59.878;17.686;2024-03-02T00:30:51;43.27;;;18.33;;
23187;SDS011;11762;59.878;17.686;2024-03-02T00:33:19;45.30;;;18.90;;
23187;SDS011;11762;59.878;17.686;2024-03-02T00:35:46;48.57;;;17.27;;
23187;SDS011;11762;59.878;17.686;2024-03-02T00:38:15;38.23;;;17.43;;
23187;SDS011;11762;59.878;17.686;2024-03-02T00:40:43;40.63;;;18.23;;
23187;SDS011;11762;59.878;17.686;2024-03-02T00:43:11;41.53;;;18.23;;
23187;SDS011;11762;59.878;17.686;2024-03-02T00:45:47;38.53;;;17.53;;
23187;SDS011;11762;59.878;17.686;2024-03-02T00:48:15;41.57;;;18.07;;
23187;SDS011;11762;59.878;17.686;2024-03-02T00:50:42;37.07;;;16.60;;
23187;SDS011;11762;59.878;17.686;2024-03-02T00:53:09;38.17;;;17.27;;
23187;SDS011;11762;59.878;17.686;2024-03-02T00:55:39;38.00;;;18.23;;
23187;SDS011;11762;59.878;17.686;2024-03-02T00:58:09;39.00;;;17.20;;
23187;SDS011;11762;59.878;17.686;2024-03-02T01:00:36;35.40;;;16.70;;
23187;SDS011;11762;59.878;17.686;2024-03-02T01:03:03;37.70;;;17.33;;
23187;SDS011;11762;59.878;17.686;2024-03-02T01:05:31;34.70;;;17.30;;
23187;SDS011;11762;59.878;17.686;2024-03-02T01:07:58;40.50;;;17.37;;
23187;SDS011;11762;59.878;17.686;2024-03-02T01:10:25;36.73;;;17.43;;
23187;SDS011;11762;59.878;17.686;2024-03-02T01:12:54;39.83;;;17.20;;
23187;SDS011;11762;59.878;17.686;2024-03-02T01:15:21;34.00;;;17.37;;
23187;SDS011;11762;59.878;17.686;2024-03-02T01:17:48;36.83;;;17.30;;
23187;SDS011;11762;59.878;17.686;2024-03-02T01:20:16;35.87;;;17.87;;
23187;SDS011;11762;59.878;17.686;2024-03-02T01:22:43;36.37;;;17.40;;
23187;SDS011;11762;59.878;17.686;2024-03-02T01:25:10;32.90;;;16.80;;
23187;SDS011;11762;59.878;17.686;2024-03-02T01:27:38;37.00;;;16.63;;
23187;SDS011;11762;59.878;17.686;2024-03-02T01:30:08;36.03;;;16.60;;
23187;SDS011;11762;59.878;17.686;2024-03-02T01:32:37;33.47;;;15.60;;
23187;SDS011;11762;59.878;17.686;2024-03-02T01:35:05;34.67;;;16.77;;
23187;SDS011;11762;59.878;17.686;2024-03-02T01:37:32;37.30;;;16.50;;
23187;SDS011;11762;59.878;17.686;2024-03-02T01:40:00;31.10;;;16.67;;
23187;SDS011;11762;59.878;17.686;2024-03-02T01:42:27;33.60;;;16.13;;
23187;SDS011;11762;59.878;17.686;2024-03-02T01:44:55;35.77;;;15.53;;
23187;SDS011;11762;59.878;17.686;2024-03-02T01:47:24;33.23;;;16.10;;
23187;SDS011;11762;59.878;17.686;2024-03-02T01:49:51;34.83;;;15.90;;
23187;SDS011;11762;59.878;17.686;2024-03-02T01:52:18;38.67;;;15.67;;
23187;SDS011;11762;59.878;17.686;2024-03-02T01:54:45;32.80;;;16.00;;
23187;SDS011;11762;59.878;17.686;2024-03-02T01:57:13;32.80;;;16.13;;
23187;SDS011;11762;59.878;17.686;2024-03-02T01:59:40;35.40;;;15.80;;
23187;SDS011;11762;59.878;17.686;2024-03-02T02:02:07;31.20;;;15.73;;
23187;SDS011;11762;59.878;17.686;2024-03-02T02:04:36;31.53;;;15.20;;
23187;SDS011;11762;59.878;17.686;2024-03-02T02:07:03;29.27;;;14.60;;
23187;SDS011;11762;59.878;17.686;2024-03-02T02:09:31;28.20;;;15.50;;
23187;SDS011;11762;59.878;17.686;2024-03-02T02:11:59;28.00;;;14.87;;
23187;SDS011;11762;59.878;17.686;2024-03-02T02:14:26;27.37;;;15.17;;
23187;SDS011;11762;59.878;17.686;2024-03-02T02:16:53;29.17;;;15.03;;
23187;SDS011;11762;59.878;17.686;2024-03-02T02:19:21;30.53;;;15.43;;
23187;SDS011;11762;59.878;17.686;2024-03-02T02:21:49;29.50;;;15.13;;
23187;SDS011;11762;59.878;17.686;2024-03-02T02:24:17;29.47;;;15.30;;
23187;SDS011;11762;59.878;17.686;2024-03-02T02:26:44;35.57;;;16.97;;
23187;SDS011;11762;59.878;17.686;2024-03-02T02:29:11;29.23;;;15.33;;
23187;SDS011;11762;59.878;17.686;2024-03-02T02:31:39;33.17;;;16.93;;
23187;SDS011;11762;59.878;17.686;2024-03-02T02:34:06;33.40;;;16.20;;
23187;SDS011;11762;59.878;17.686;2024-03-02T02:36:34;33.77;;;16.43;;
23187;SDS011;11762;59.878;17.686;2024-03-02T02:39:05;29.07;;;15.20;;
23187;SDS011;11762;59.878;17.686;2024-03-02T02:41:33;29.83;;;15.40;;
23187;SDS011;11762;59.878;17.686;2024-03-02T02:44:00;29.93;;;14.37;;
23187;SDS011;11762;59.878;17.686;2024-03-02T02:46:27;28.73;;;15.67;;
23187;SDS011;11762;59.878;17.686;2024-03-02T02:48:55;31.27;;;16.30;;
23187;SDS011;11762;59.878;17.686;2024-03-02T02:51:22;34.63;;;15.83;;
23187;SDS011;11762;59.878;17.686;2024-03-02T02:53:50;30.60;;;16.43;;
23187;SDS011;11762;59.878;17.686;2024-03-02T02:56:19;31.17;;;14.93;;
23187;SDS011;11762;59.878;17.686;2024-03-02T02:58:46;30.07;;;16.27;;
23187;SDS011;11762;59.878;17.686;2024-03-02T03:01:13;32.63;;;15.90;;
23187;SDS011;11762;59.878;17.686;2024-03-02T03:03:42;32.80;;;16.10;;
23187;SDS011;11762;59.878;17.686;2024-03-02T03:06:09;29.97;;;15.47;;
23187;SDS011;11762;59.878;17.686;2024-03-02T03:08:36;33.33;;;15.93;;
23187;SDS011;11762;59.878;17.686;2024-03-02T03:11:03;32.67;;;15.07;;
23187;SDS011;11762;59.878;17.686;2024-03-02T03:13:33;29.53;;;16.70;;
23187;SDS011;11762;59.878;17.686;2024-03-02T03:16:00;32.07;;;15.33;;
23187;SDS011;11762;59.878;17.686;2024-03-02T03:18:28;34.87;;;16.10;;
23187;SDS011;11762;59.878;17.686;2024-03-02T03:20:55;34.77;;;16.47;;
23187;SDS011;11762;59.878;17.686;2024-03-02T03:23:22;27.97;;;16.43;;
23187;SDS011;11762;59.878;17.686;2024-03-02T03:25:51;38.43;;;16.23;;
23187;SDS011;11762;59.878;17.686;2024-03-02T03:28:18;31.67;;;17.03;;
23187;SDS011;11762;59.878;17.686;2024-03-02T03:30:47;33.63;;;17.50;;
23187;SDS011;11762;59.878;17.686;2024-03-02T03:33:14;32.00;;;15.27;;
23187;SDS011;11762;59.878;17.686;2024-03-02T03:35:41;32.83;;;16.77;;
23187;SDS011;11762;59.878;17.686;2024-03-02T03:38:08;31.30;;;16.10;;
23187;SDS011;11762;59.878;17.686;2024-03-02T03:40:35;40.47;;;16.67;;
23187;SDS011;11762;59.878;17.686;2024-03-02T03:43:03;32.67;;;17.00;;
23187;SDS011;11762;59.878;17.686;2024-03-02T03:45:30;34.77;;;15.63;;
23187;SDS011;11762;59.878;17.686;2024-03-02T03:47:59;35.33;;;17.57;;
23187;SDS011;11762;59.878;17.686;2024-03-02T03:50:26;39.03;;;18.30;;
23187;SDS011;11762;59.878;17.686;2024-03-02T03:52:53;33.80;;;16.27;;
23187;SDS011;11762;59.878;17.686;2024-03-02T03:55:20;33.83;;;17.67;;
23187;SDS011;11762;59.878;17.686;2024-03-02T03:57:48;32.50;;;16.43;;
23187;SDS011;11762;59.878;17.686;2024-03-02T04:00:15;33.93;;;16.27;;
23187;SDS011;11762;59.878;17.686;2024-03-02T04:02:42;32.43;;;16.17;;
23187;SDS011;11762;59.878;17.686;2024-03-02T04:05:11;34.27;;;17.23;;
23187;SDS011;11762;59.878;17.686;2024-03-02T04:07:38;34.60;;;16.70;;
23187;SDS011;11762;59.878;17.686;2024-03-02T04:10:07;39.33;;;17.30;;
23187;SDS011;11762;59.878;17.686;2024-03-02T04:12:34;37.70;;;18.30;;
23187;SDS011;11762;59.878;17.686;2024-03-02T04:15:02;35.07;;;18.00;;
23187;SDS011;11762;59.878;17.686;2024-03-02T04:17:31;35.60;;;17.50;;
23187;SDS011;11762;59.878;17.686;2024-03-02T04:19:58;34.63;;;17.27;;
23187;SDS011;11762;59.878;17.686;2024-03-02T04:22:27;34.67;;;17.40;;
23187;SDS011;11762;59.878;17.686;2024-03-02T04:24:54;30.00;;;16.67;;
23187;SDS011;11762;59.878;17.686;2024-03-02T04:27:22;36.87;;;18.10;;
23187;SDS011;11762;59.878;17.686;2024-03-02T04:29:49;36.17;;;18.63;;
23187;SDS011;11762;59.878;17.686;2024-03-02T04:32:16;37.73;;;16.70;;
23187;SDS011;11762;59.878;17.686;2024-03-02T04:34:44;35.87;;;18.43;;
23187;SDS011;11762;59.878;17.686;2024-03-02T04:37:11;38.50;;;19.30;;
23187;SDS011;11762;59.878;17.686;2024-03-02T04:39:41;32.43;;;18.33;;
23187;SDS011;11762;59.878;17.686;2024-03-02T04:42:08;39.93;;;19.00;;
23187;SDS011;11762;59.878;17.686;2024-03-02T04:44:35;44.80;;;19.47;;
23187;SDS011;11762;59.878;17.686;2024-03-02T04:47:03;42.70;;;19.43;;
23187;SDS011;11762;59.878;17.686;2024-03-02T04:49:30;43.20;;;19.03;;
23187;SDS011;11762;59.878;17.686;2024-03-02T04:51:57;38.73;;;18.60;;
23187;SDS011;11762;59.878;17.686;2024-03-02T04:54:25;38.70;;;18.27;;
23187;SDS011;11762;59.878;17.686;2024-03-02T04:56:53;39.77;;;19.00;;
23187;SDS011;11762;59.878;17.686;2024-03-02T04:59:21;41.50;;;19.10;;
23187;SDS011;11762;59.878;17.686;2024-03-02T05:01:48;42.23;;;18.90;;
23187;SDS011;11762;59.878;17.686;2024-03-02T05:04:15;36.73;;;17.83;;
23187;SDS011;11762;59.878;17.686;2024-03-02T05:06:43;41.30;;;18.87;;
23187;SDS011;11762;59.878;17.686;2024-03-02T05:09:16;34.87;;;18.00;;
23187;SDS011;11762;59.878;17.686;2024-03-02T05:11:43;41.50;;;18.17;;
23187;SDS011;11762;59.878;17.686;2024-03-02T05:14:38;39.23;;;18.33;;
23187;SDS011;11762;59.878;17.686;2024-03-02T05:17:05;39.67;;;17.97;;
23187;SDS011;11762;59.878;17.686;2024-03-02T05:19:32;37.03;;;17.43;;
23187;SDS011;11762;59.878;17.686;2024-03-02T05:22:00;38.33;;;17.60;;
23187;SDS011;11762;59.878;17.686;2024-03-02T05:24:28;36.57;;;18.43;;
23187;SDS011;11762;59.878;17.686;2024-03-02T05:26:55;37.63;;;16.93;;
23187;SDS011;11762;59.878;17.686;2024-03-02T05:29:22;35.80;;;17.20;;
23187;SDS011;11762;59.878;17.686;2024-03-02T05:31:51;37.67;;;18.37;;
23187;SDS011;11762;59.878;17.686;2024-03-02T05:34:18;35.77;;;18.13;;
23187;SDS011;11762;59.878;17.686;2024-03-02T05:36:45;35.63;;;18.03;;
23187;SDS011;11762;59.878;17.686;2024-03-02T05:39:13;44.00;;;18.63;;
23187;SDS011;11762;59.878;17.686;2024-03-02T05:41:40;40.03;;;19.13;;
23187;SDS011;11762;59.878;17.686;2024-03-02T05:44:07;42.77;;;19.43;;
23187;SDS011;11762;59.878;17.686;2024-03-02T05:46:35;33.70;;;17.77;;
23187;SDS011;11762;59.878;17.686;2024-03-02T05:49:03;41.50;;;18.37;;
23187;SDS011;11762;59.878;17.686;2024-03-02T05:51:34;39.40;;;19.73;;
23187;SDS011;11762;59.878;17.686;2024-03-02T05:54:02;44.53;;;19.97;;
23187;SDS011;11762;59.878;17.686;2024-03-02T05:56:29;38.73;;;20.03;;
23187;SDS011;11762;59.878;17.686;2024-03-02T05:58:57;39.37;;;19.60;;
23187;SDS011;11762;59.878;17.686;2024-03-02T06:01:37;45.60;;;20.33;;
23187;SDS011;11762;59.878;17.686;2024-03-02T06:04:06;42.77;;;19.20;;
23187;SDS011;11762;59.878;17.686;2024-03-02T06:06:33;42.43;;;20.33;;
23187;SDS011;11762;59.878;17.686;2024-03-02T06:09:00;44.67;;;20.10;;
23187;SDS011;11762;59.878;17.686;2024-03-02T06:11:30;44.57;;;19.80;;
23187;SDS011;11762;59.878;17.686;2024-03-02T06:13:57;43.87;;;21.03;;
23187;SDS011;11762;59.878;17.686;2024-03-02T06:16:24;40.27;;;19.57;;
23187;SDS011;11762;59.878;17.686;2024-03-02T06:18:52;42.20;;;19.50;;
23187;SDS011;11762;59.878;17.686;2024-03-02T06:21:21;43.33;;;19.57;;
23187;SDS011;11762;59.878;17.686;2024-03-02T06:23:48;44.03;;;20.90;;
23187;SDS011;11762;59.878;17.686;2024-03-02T06:26:16;43.60;;;20.10;;
23187;SDS011;11762;59.878;17.686;2024-03-02T06:28:43;47.60;;;22.03;;
23187;SDS011;11762;59.878;17.686;2024-03-02T06:31:10;38.03;;;18.53;;
23187;SDS011;11762;59.878;17.686;2024-03-02T06:33:37;39.03;;;20.43;;
23187;SDS011;11762;59.878;17.686;2024-03-02T06:36:05;41.50;;;20.30;;
23187;SDS011;11762;59.878;17.686;2024-03-02T06:38:35;37.67;;;18.83;;
23187;SDS011;11762;59.878;17.686;2024-03-02T06:41:02;41.93;;;20.17;;
23187;SDS011;11762;59.878;17.686;2024-03-02T06:43:29;41.80;;;20.43;;
23187;SDS011;11762;59.878;17.686;2024-03-02T06:45:56;39.23;;;19.43;;
23187;SDS011;11762;59.878;17.686;2024-03-02T06:48:24;44.03;;;20.93;;
23187;SDS011;11762;59.878;17.686;2024-03-02T06:50:51;47.27;;;19.97;;
23187;SDS011;11762;59.878;17.686;2024-03-02T06:53:18;44.07;;;19.83;;
23187;SDS011;11762;59.878;17.686;2024-03-02T06:55:48;44.47;;;19.13;;
23187;SDS011;11762;59.878;17.686;2024-03-02T06:58:15;45.67;;;19.03;;
23187;SDS011;11762;59.878;17.686;2024-03-02T07:00:42;39.93;;;19.70;;
23187;SDS011;11762;59.878;17.686;2024-03-02T07:03:10;42.20;;;19.03;;
23187;SDS011;11762;59.878;17.686;2024-03-02T07:05:37;43.80;;;19.57;;
23187;SDS011;11762;59.878;17.686;2024-03-02T07:08:05;42.27;;;19.53;;
23187;SDS011;11762;59.878;17.686;2024-03-02T07:10:32;41.77;;;20.83;;
23187;SDS011;11762;59.878;17.686;2024-03-02T07:13:01;46.00;;;19.27;;
23187;SDS011;11762;59.878;17.686;2024-03-02T07:15:28;40.00;;;20.10;;
23187;SDS011;11762;59.878;17.686;2024-03-02T07:18:09;41.23;;;18.93;;
23187;SDS011;11762;59.878;17.686;2024-03-02T07:20:36;37.70;;;18.13;;
23187;SDS011;11762;59.878;17.686;2024-03-02T07:23:04;36.87;;;19.10;;
23187;SDS011;11762;59.878;17.686;2024-03-02T07:25:32;48.87;;;17.90;;
23187;SDS011;11762;59.878;17.686;2024-03-02T07:28:00;52.37;;;18.67;;
23187;SDS011;11762;59.878;17.686;2024-03-02T07:30:28;38.90;;;18.43;;
23187;SDS011;11762;59.878;17.686;2024-03-02T07:32:55;39.03;;;18.00;;
23187;SDS011;11762;59.878;17.686;2024-03-02T07:35:23;39.43;;;18.77;;
23187;SDS011;11762;59.878;17.686;2024-03-02T07:37:52;37.10;;;17.77;;
23187;SDS011;11762;59.878;17.686;2024-03-02T07:40:20;38.90;;;17.33;;
23187;SDS011;11762;59.878;17.686;2024-03-02T07:42:47;38.90;;;17.63;;
23187;SDS011;11762;59.878;17.686;2024-03-02T07:45:16;37.67;;;16.60;;
23187;SDS011;11762;59.878;17.686;2024-03-02T07:47:43;37.73;;;17.27;;
23187;SDS011;11762;59.878;17.686;2024-03-02T07:50:10;36.73;;;16.57;;
23187;SDS011;11762;59.878;17.686;2024-03-02T07:52:38;29.57;;;15.87;;
23187;SDS011;11762;59.878;17.686;2024-03-02T07:55:05;32.93;;;16.63;;
23187;SDS011;11762;59.878;17.686;2024-03-02T07:57:32;34.23;;;16.93;;
23187;SDS011;11762;59.878;17.686;2024-03-02T08:00:00;33.03;;;15.90;;
23187;SDS011;11762;59.878;17.686;2024-03-02T08:02:28;36.33;;;15.97;;
23187;SDS011;11762;59.878;17.686;2024-03-02T08:04:55;32.67;;;16.27;;
23187;SDS011;11762;59.878;17.686;2024-03-02T08:07:23;30.83;;;15.33;;
23187;SDS011;11762;59.878;17.686;2024-03-02T08:09:50;39.40;;;15.73;;
23187;SDS011;11762;59.878;17.686;2024-03-02T08:12:17;36.83;;;17.77;;
23187;SDS011;11762;59.878;17.686;2024-03-02T08:14:44;30.27;;;15.30;;
23187;SDS011;11762;59.878;17.686;2024-03-02T08:17:12;31.97;;;14.93;;
23187;SDS011;11762;59.878;17.686;2024-03-02T08:19:40;36.07;;;15.97;;
23187;SDS011;11762;59.878;17.686;2024-03-02T08:22:07;35.83;;;14.93;;
23187;SDS011;11762;59.878;17.686;2024-03-02T08:24:35;36.10;;;15.70;;
23187;SDS011;11762;59.878;17.686;2024-03-02T08:27:02;36.53;;;15.93;;
23187;SDS011;11762;59.878;17.686;2024-03-02T08:29:30;28.47;;;15.03;;
23187;SDS011;11762;59.878;17.686;2024-03-02T08:31:57;29.70;;;14.60;;
23187;SDS011;11762;59.878;17.686;2024-03-02T08:34:24;32.07;;;16.10;;
23187;SDS011;11762;59.878;17.686;2024-03-02T08:36:53;33.70;;;15.20;;
23187;SDS011;11762;59.878;17.686;2024-03-02T08:39:20;27.97;;;14.30;;
23187;SDS011;11762;59.878;17.686;2024-03-02T08:41:48;33.57;;;15.70;;
23187;SDS011;11762;59.878;17.686;2024-03-02T08:44:15;44.40;;;17.47;;
23187;SDS011;11762;59.878;17.686;2024-03-02T08:46:42;39.90;;;18.30;;
23187;SDS011;11762;59.878;17.686;2024-03-02T08:49:10;38.03;;;18.00;;
23187;SDS011;11762;59.878;17.686;2024-03-02T08:51:37;40.50;;;20.90;;
23187;SDS011;11762;59.878;17.686;2024-03-02T08:54:06;30.07;;;15.57;;
23187;SDS011;11762;59.878;17.686;2024-03-02T08:56:33;44.60;;;19.80;;
23187;SDS011;11762;59.878;17.686;2024-03-02T08:59:01;28.27;;;14.90;;
23187;SDS011;11762;59.878;17.686;2024-03-02T09:01:28;29.27;;;15.10;;
23187;SDS011;11762;59.878;17.686;2024-03-02T09:03:55;30.57;;;14.20;;
23187;SDS011;11762;59.878;17.686;2024-03-02T09:06:22;26.23;;;13.13;;
23187;SDS011;11762;59.878;17.686;2024-03-02T09:08:50;22.57;;;13.07;;
23187;SDS011;11762;59.878;17.686;2024-03-02T09:11:18;27.30;;;13.23;;
23187;SDS011;11762;59.878;17.686;2024-03-02T09:13:46;28.57;;;14.30;;
23187;SDS011;11762;59.878;17.686;2024-03-02T09:16:13;36.87;;;13.67;;
23187;SDS011;11762;59.878;17.686;2024-03-02T09:18:40;28.63;;;13.90;;
23187;SDS011;11762;59.878;17.686;2024-03-02T09:21:07;27.17;;;13.87;;
23187;SDS011;11762;59.878;17.686;2024-03-02T09:23:35;31.20;;;12.93;;
23187;SDS011;11762;59.878;17.686;2024-03-02T09:26:03;28.40;;;13.23;;
23187;SDS011;11762;59.878;17.686;2024-03-02T09:28:32;29.53;;;13.73;;
23187;SDS011;11762;59.878;17.686;2024-03-02T09:31:00;28.97;;;13.03;;
23187;SDS011;11762;59.878;17.686;2024-03-02T09:33:27;28.63;;;13.47;;
23187;SDS011;11762;59.878;17.686;2024-03-02T09:35:54;31.47;;;13.10;;
23187;SDS011;11762;59.878;17.686;2024-03-02T09:38:21;31.67;;;13.57;;
23187;SDS011;11762;59.878;17.686;2024-03-02T09:40:48;29.53;;;13.50;;
23187;SDS011;11762;59.878;17.686;2024-03-02T09:43:15;24.77;;;12.87;;
23187;SDS011;11762;59.878;17.686;2024-03-02T09:45:44;25.77;;;12.83;;
23187;SDS011;11762;59.878;17.686;2024-03-02T09:48:11;28.13;;;12.70;;
23187;SDS011;11762;59.878;17.686;2024-03-02T09:50:39;23.40;;;12.37;;
23187;SDS011;11762;59.878;17.686;2024-03-02T09:53:06;23.50;;;12.33;;
23187;SDS011;11762;59.878;17.686;2024-03-02T09:55:34;28.47;;;13.27;;
23187;SDS011;11762;59.878;17.686;2024-03-02T09:58:01;28.20;;;13.33;;
23187;SDS011;11762;59.878;17.686;2024-03-02T10:00:29;25.30;;;11.73;;
23187;SDS011;11762;59.878;17.686;2024-03-02T10:02:58;29.10;;;12.17;;
23187;SDS011;11762;59.878;17.686;2024-03-02T10:05:26;28.60;;;11.37;;
23187;SDS011;11762;59.878;17.686;2024-03-02T10:07:59;32.33;;;18.13;;
23187;SDS011;11762;59.878;17.686;2024-03-02T10:10:37;26.67;;;13.53;;
23187;SDS011;11762;59.878;17.686;2024-03-02T10:13:07;18.37;;;12.03;;
23187;SDS011;11762;59.878;17.686;2024-03-02T10:15:35;21.43;;;11.97;;
23187;SDS011;11762;59.878;17.686;2024-03-02T10:18:04;27.77;;;13.10;;
23187;SDS011;11762;59.878;17.686;2024-03-02T10:20:31;26.83;;;12.50;;
23187;SDS011;11762;59.878;17.686;2024-03-02T10:23:09;21.27;;;12.43;;
23187;SDS011;11762;59.878;17.686;2024-03-02T10:25:37;23.37;;;12.57;;
23187;SDS011;11762;59.878;17.686;2024-03-02T10:28:04;29.27;;;11.97;;
23187;SDS011;11762;59.878;17.686;2024-03-02T10:30:32;23.97;;;11.67;;
23187;SDS011;11762;59.878;17.686;2024-03-02T10:32:59;25.73;;;11.60;;
23187;SDS011;11762;59.878;17.686;2024-03-02T10:35:29;23.13;;;11.30;;
23187;SDS011;11762;59.878;17.686;2024-03-02T10:37:58;23.10;;;12.37;;
23187;SDS011;11762;59.878;17.686;2024-03-02T10:40:26;21.27;;;12.30;;
23187;SDS011;11762;59.878;17.686;2024-03-02T10:42:53;26.33;;;12.33;;
23187;SDS011;11762;59.878;17.686;2024-03-02T10:45:21;23.73;;;12.13;;
23187;SDS011;11762;59.878;17.686;2024-03-02T10:47:48;22.93;;;11.30;;
23187;SDS011;11762;59.878;17.686;2024-03-02T10:50:16;31.23;;;12.33;;
23187;SDS011;11762;59.878;17.686;2024-03-02T10:52:45;34.37;;;16.53;;
23187;SDS011;11762;59.878;17.686;2024-03-02T10:55:12;20.23;;;11.50;;
23187;SDS011;11762;59.878;17.686;2024-03-02T10:57:41;23.83;;;11.47;;
23187;SDS011;11762;59.878;17.686;2024-03-02T11:00:11;20.70;;;11.60;;
23187;SDS011;11762;59.878;17.686;2024-03-02T11:02:40;22.73;;;11.87;;
23187;SDS011;11762;59.878;17.686;2024-03-02T11:05:07;24.10;;;11.83;;
23187;SDS011;11762;59.878;17.686;2024-03-02T11:07:37;27.97;;;11.53;;
23187;SDS011;11762;59.878;17.686;2024-03-02T11:10:06;25.90;;;12.43;;
23187;SDS011;11762;59.878;17.686;2024-03-02T11:12:36;24.67;;;12.63;;
23187;SDS011;11762;59.878;17.686;2024-03-02T11:15:07;21.87;;;10.13;;
23187;SDS011;11762;59.878;17.686;2024-03-02T11:17:36;25.93;;;11.93;;
23187;SDS011;11762;59.878;17.686;2024-03-02T11:20:05;29.87;;;12.33;;
23187;SDS011;11762;59.878;17.686;2024-03-02T11:22:34;21.57;;;11.37;;
23187;SDS011;11762;59.878;17.686;2024-03-02T11:25:01;21.83;;;11.57;;
23187;SDS011;11762;59.878;17.686;2024-03-02T11:30:19;21.37;;;10.43;;
23187;SDS011;11762;59.878;17.686;2024-03-02T11:33:07;22.20;;;11.20;;
23187;SDS011;11762;59.878;17.686;2024-03-02T11:35:34;24.40;;;10.77;;
23187;SDS011;11762;59.878;17.686;2024-03-02T11:38:02;22.10;;;10.40;;
23187;SDS011;11762;59.878;17.686;2024-03-02T11:40:30;22.03;;;11.23;;
23187;SDS011;11762;59.878;17.686;2024-03-02T11:42:59;20.10;;;12.07;;
23187;SDS011;11762;59.878;17.686;2024-03-02T11:45:27;19.83;;;11.30;;
23187;SDS011;11762;59.878;17.686;2024-03-02T11:47:57;24.00;;;11.23;;
23187;SDS011;11762;59.878;17.686;2024-03-02T11:50:28;24.20;;;10.90;;
23187;SDS011;11762;59.878;17.686;2024-03-02T11:52:56;23.13;;;10.63;;
23187;SDS011;11762;59.878;17.686;2024-03-02T11:55:24;26.60;;;12.03;;
23187;SDS011;11762;59.878;17.686;2024-03-02T11:57:52;21.50;;;11.20;;
23187;SDS011;11762;59.878;17.686;2024-03-02T12:00:20;28.50;;;12.00;;
23187;SDS011;11762;59.878;17.686;2024-03-02T12:02:55;21.10;;;11.60;;
23187;SDS011;11762;59.878;17.686;2024-03-02T12:05:26;18.90;;;10.83;;
23187;SDS011;11762;59.878;17.686;2024-03-02T12:07:55;28.27;;;11.77;;
23187;SDS011;11762;59.878;17.686;2024-03-02T12:10:22;24.73;;;11.43;;
23187;SDS011;11762;59.878;17.686;2024-03-02T12:12:54;23.93;;;11.77;;
23187;SDS011;11762;59.878;17.686;2024-03-02T12:15:22;23.83;;;11.50;;
23187;SDS011;11762;59.878;17.686;2024-03-02T12:17:53;25.27;;;12.20;;
23187;SDS011;11762;59.878;17.686;2024-03-02T12:20:21;23.10;;;11.30;;
23187;SDS011;11762;59.878;17.686;2024-03-02T12:22:49;29.80;;;13.07;;
23187;SDS011;11762;59.878;17.686;2024-03-02T12:25:17;23.67;;;11.83;;
23187;SDS011;11762;59.878;17.686;2024-03-02T12:27:45;23.77;;;11.87;;
23187;SDS011;11762;59.878;17.686;2024-03-02T12:30:12;23.23;;;10.83;;
23187;SDS011;11762;59.878;17.686;2024-03-02T12:32:40;25.80;;;12.40;;
23187;SDS011;11762;59.878;17.686;2024-03-02T12:35:09;17.63;;;10.90;;
23187;SDS011;11762;59.878;17.686;2024-03-02T12:37:42;23.87;;;11.57;;
23187;SDS011;11762;59.878;17.686;2024-03-02T12:40:10;25.67;;;12.87;;
23187;SDS011;11762;59.878;17.686;2024-03-02T12:42:37;25.70;;;13.13;;
23187;SDS011;11762;59.878;17.686;2024-03-02T12:45:05;23.50;;;12.20;;
23187;SDS011;11762;59.878;17.686;2024-03-02T12:47:33;24.40;;;12.87;;
23187;SDS011;11762;59.878;17.686;2024-03-02T12:50:00;23.83;;;12.50;;
23187;SDS011;11762;59.878;17.686;2024-03-02T12:52:29;28.60;;;13.10;;
23187;SDS011;11762;59.878;17.686;2024-03-02T12:54:57;23.13;;;12.20;;
23187;SDS011;11762;59.878;17.686;2024-03-02T12:57:25;20.07;;;11.53;;
23187;SDS011;11762;59.878;17.686;2024-03-02T12:59:56;22.03;;;11.37;;
23187;SDS011;11762;59.878;17.686;2024-03-02T13:02:23;26.80;;;12.20;;
23187;SDS011;11762;59.878;17.686;2024-03-02T13:04:54;19.53;;;11.40;;
23187;SDS011;11762;59.878;17.686;2024-03-02T13:07:21;23.17;;;11.73;;
23187;SDS011;11762;59.878;17.686;2024-03-02T13:09:50;25.90;;;12.60;;
23187;SDS011;11762;59.878;17.686;2024-03-02T13:12:18;23.00;;;12.00;;
23187;SDS011;11762;59.878;17.686;2024-03-02T13:14:47;29.87;;;11.77;;
23187;SDS011;11762;59.878;17.686;2024-03-02T13:17:16;22.87;;;11.37;;
23187;SDS011;11762;59.878;17.686;2024-03-02T13:19:50;24.23;;;11.80;;
23187;SDS011;11762;59.878;17.686;2024-03-02T13:22:19;26.80;;;11.87;;
23187;SDS011;11762;59.878;17.686;2024-03-02T13:24:46;21.23;;;12.00;;
23187;SDS011;11762;59.878;17.686;2024-03-02T13:27:15;26.13;;;12.77;;
23187;SDS011;11762;59.878;17.686;2024-03-02T13:29:44;18.37;;;11.17;;
23187;SDS011;11762;59.878;17.686;2024-03-02T13:32:12;23.37;;;12.00;;
23187;SDS011;11762;59.878;17.686;2024-03-02T13:34:40;27.03;;;12.63;;
23187;SDS011;11762;59.878;17.686;2024-03-02T13:37:07;26.13;;;12.70;;
23187;SDS011;11762;59.878;17.686;2024-03-02T13:39:34;24.97;;;11.67;;
23187;SDS011;11762;59.878;17.686;2024-03-02T13:42:06;26.77;;;11.97;;
23187;SDS011;11762;59.878;17.686;2024-03-02T13:44:35;24.40;;;12.70;;
23187;SDS011;11762;59.878;17.686;2024-03-02T13:47:03;23.37;;;11.07;;
23187;SDS011;11762;59.878;17.686;2024-03-02T13:49:30;22.77;;;12.77;;
23187;SDS011;11762;59.878;17.686;2024-03-02T13:52:01;24.70;;;11.23;;
23187;SDS011;11762;59.878;17.686;2024-03-02T13:54:36;22.50;;;12.10;;
23187;SDS011;11762;59.878;17.686;2024-03-02T13:57:04;21.23;;;11.93;;
23187;SDS011;11762;59.878;17.686;2024-03-02T13:59:31;21.23;;;11.77;;
23187;SDS011;11762;59.878;17.686;2024-03-02T14:02:00;25.40;;;13.03;;
23187;SDS011;11762;59.878;17.686;2024-03-02T14:04:29;22.90;;;12.37;;
23187;SDS011;11762;59.878;17.686;2024-03-02T14:06:56;26.47;;;12.40;;
23187;SDS011;11762;59.878;17.686;2024-03-02T14:09:24;25.40;;;12.80;;
23187;SDS011;11762;59.878;17.686;2024-03-02T14:11:52;28.73;;;12.40;;
23187;SDS011;11762;59.878;17.686;2024-03-02T14:14:19;22.57;;;13.10;;
23187;SDS011;11762;59.878;17.686;2024-03-02T14:16:46;26.60;;;13.23;;